Time;durP1;ratioP1;P1;durP2;ratioP2;P2;SDS_P1;SDS_P2;PMS_P1;PMS_P2;Temp;Humidity;BMP_temperature;BMP_pressure;BME280_temperature;BME280_humidity;BME280_pressure;Samples;Min_cycle;Max_cycle;Signal;HPM_P1;HPM_P2
2022/09/06 00:00:10;;;;;;;8.57;7.87;;;16.50;99.90;;;;;;4934427;29;20195;-77
2022/09/06 00:02:42;;;;;;;8.83;8.07;;;16.50;99.90;;;;;;4935961;29;20233;-78
2022/09/06 00:05:10;;;;;;;8.63;7.97;;;16.40;99.90;;;;;;4934037;29;20233;-78
2022/09/06 00:07:37;;;;;;;8.30;7.60;;;16.40;99.90;;;;;;4935281;29;20198;-77
2022/09/06 00:10:05;;;;;;;8.70;8.00;;;16.40;99.90;;;;;;4936516;29;20713;-77
2022/09/06 00:12:34;;;;;;;7.93;7.33;;;16.40;99.90;;;;;;4930310;29;20214;-76
2022/09/06 00:15:00;;;;;;;8.27;7.67;;;16.40;99.90;;;;;;4933953;29;20286;-77
2022/09/06 00:17:27;;;;;;;8.50;7.80;;;16.40;99.90;;;;;;4935286;29;20197;-77
2022/09/06 00:19:54;;;;;;;8.97;8.27;;;16.30;99.90;;;;;;4935369;29;20250;-77
2022/09/06 00:22:21;;;;;;;8.27;7.67;;;16.30;99.90;;;;;;4933757;29;20648;-76
2022/09/06 00:24:48;;;;;;;8.63;7.97;;;16.40;99.90;;;;;;4934696;29;20211;-77
2022/09/06 00:27:14;;;;;;;9.23;8.43;;;16.40;99.90;;;;;;4934878;29;20198;-77
2022/09/06 00:29:42;;;;;;;8.60;8.00;;;16.40;99.90;;;;;;4934179;29;20196;-77
2022/09/06 00:32:09;;;;;;;9.17;8.40;;;16.40;99.90;;;;;;4933158;29;20595;-77
2022/09/06 00:34:36;;;;;;;8.97;8.17;;;16.30;99.90;;;;;;4934884;29;20248;-76
2022/09/06 00:37:03;;;;;;;9.57;8.70;;;16.30;99.90;;;;;;4933705;29;20216;-77
2022/09/06 00:39:29;;;;;;;9.33;8.53;;;16.30;99.90;;;;;;4933785;29;20636;-76
2022/09/06 00:41:56;;;;;;;9.63;8.73;;;16.30;99.90;;;;;;4933104;29;20648;-76
2022/09/06 00:44:23;;;;;;;9.03;8.23;;;16.30;99.90;;;;;;4934533;29;20224;-77
2022/09/06 00:46:54;;;;;;;9.90;9.00;;;16.30;99.90;;;;;;4934851;29;20236;-76
2022/09/06 00:49:26;;;;;;;9.43;8.63;;;16.30;99.90;;;;;;4933605;29;20263;-76
2022/09/06 00:51:55;;;;;;;9.53;8.70;;;16.20;99.90;;;;;;4934656;29;20238;-76
2022/09/06 00:54:23;;;;;;;8.87;8.17;;;16.30;99.90;;;;;;4933140;29;20199;-76
2022/09/06 00:56:50;;;;;;;9.40;8.53;;;16.20;99.90;;;;;;4934723;29;20199;-76
2022/09/06 00:59:17;;;;;;;9.23;8.43;;;16.20;99.90;;;;;;4934630;29;20218;-76
2022/09/06 01:01:44;;;;;;;9.07;8.37;;;16.10;99.90;;;;;;4934931;29;20280;-76
2022/09/06 01:04:13;;;;;;;8.97;8.17;;;16.10;99.90;;;;;;4941342;29;20711;-76
2022/09/06 01:06:49;;;;;;;8.83;8.13;;;16.10;99.90;;;;;;4934881;29;20705;-76
2022/09/06 01:09:28;;;;;;;8.90;8.20;;;16.00;99.90;;;;;;4927510;29;20206;-77
2022/09/06 01:12:11;;;;;;;9.33;8.63;;;16.10;99.90;;;;;;4934861;29;20283;-76
2022/09/06 01:14:52;;;;;;;8.87;8.17;;;16.00;99.90;;;;;;4933161;29;20205;-76
2022/09/06 01:17:28;;;;;;;9.03;8.33;;;16.10;99.90;;;;;;4933269;29;20203;-76
2022/09/06 01:20:20;;;;;;;8.97;8.27;;;16.10;99.90;;;;;;4934747;29;20210;-76
2022/09/06 01:23:15;;;;;;;9.00;8.30;;;16.10;99.90;;;;;;4934445;29;20300;-77
2022/09/06 01:25:53;;;;;;;8.57;7.97;;;16.10;99.90;;;;;;4936634;29;20245;-76
2022/09/06 01:28:33;;;;;;;9.37;8.67;;;16.10;99.90;;;;;;4934737;29;20253;-77
2022/09/06 01:31:20;;;;;;;8.93;8.23;;;16.10;99.90;;;;;;4937991;29;20696;-76
2022/09/06 01:33:54;;;;;;;9.20;8.37;;;16.10;99.90;;;;;;4937581;29;20248;-77
2022/09/06 01:36:24;;;;;;;8.83;8.03;;;16.00;99.90;;;;;;4936802;29;20662;-77
2022/09/06 01:38:50;;;;;;;8.77;8.07;;;16.00;99.90;;;;;;4936425;29;20217;-77
2022/09/06 01:41:17;;;;;;;8.93;8.23;;;16.00;99.90;;;;;;4936560;29;20646;-76
2022/09/06 01:43:48;;;;;;;8.67;7.97;;;16.00;99.90;;;;;;4937472;29;20688;-77
2022/09/06 01:46:24;;;;;;;9.43;8.60;;;15.90;99.90;;;;;;4937859;29;20267;-76
2022/09/06 01:49:07;;;;;;;9.67;8.90;;;16.00;99.90;;;;;;4937400;29;20635;-76
2022/09/06 01:51:44;;;;;;;9.27;8.47;;;16.00;99.90;;;;;;4935966;29;20206;-77
2022/09/06 01:54:26;;;;;;;10.43;9.43;;;15.90;99.90;;;;;;4931753;29;20668;-77
2022/09/06 01:57:08;;;;;;;9.67;8.87;;;16.00;99.90;;;;;;4936431;29;20690;-76
2022/09/06 01:59:57;;;;;;;9.30;8.40;;;16.00;99.90;;;;;;4937683;29;20656;-77
2022/09/06 02:02:30;;;;;;;9.93;8.97;;;16.00;99.90;;;;;;4930575;29;20465;-77
2022/09/06 02:05:03;;;;;;;9.53;8.80;;;16.00;99.90;;;;;;4937051;29;20217;-77
2022/09/06 02:07:33;;;;;;;9.33;8.63;;;16.00;99.90;;;;;;4936254;29;20567;-76
2022/09/06 02:10:11;;;;;;;9.57;8.87;;;16.00;99.90;;;;;;4936626;29;20209;-77
2022/09/06 02:12:41;;;;;;;9.60;8.90;;;16.00;99.90;;;;;;4937301;29;20760;-75
2022/09/06 02:15:14;;;;;;;9.70;9.00;;;16.00;99.90;;;;;;4937167;29;20606;-77
2022/09/06 02:17:46;;;;;;;10.20;9.30;;;16.10;99.90;;;;;;4937289;29;20565;-76
2022/09/06 02:20:18;;;;;;;11.40;10.50;;;16.10;99.90;;;;;;4936221;29;20200;-77
2022/09/06 02:22:47;;;;;;;10.13;9.40;;;16.00;99.90;;;;;;4935908;29;20284;-76
2022/09/06 02:25:20;;;;;;;10.10;9.33;;;16.10;99.90;;;;;;4935758;29;20221;-76
2022/09/06 02:27:47;;;;;;;9.70;9.00;;;16.10;99.90;;;;;;4936941;29;20676;-76
2022/09/06 02:30:15;;;;;;;10.17;9.30;;;16.00;99.90;;;;;;4935830;29;20664;-76
2022/09/06 02:32:48;;;;;;;9.63;8.83;;;16.00;99.90;;;;;;4937410;29;20225;-77
2022/09/06 02:35:16;;;;;;;10.30;9.50;;;16.10;99.90;;;;;;4927934;29;20664;-77
2022/09/06 02:37:43;;;;;;;9.73;8.93;;;16.10;99.90;;;;;;4934516;29;20207;-77
2022/09/06 02:40:11;;;;;;;10.73;9.93;;;16.10;99.90;;;;;;4943104;28;20829;-77
2022/09/06 02:42:40;;;;;;;9.87;9.07;;;16.10;99.90;;;;;;4936041;29;20254;-79
2022/09/06 02:45:08;;;;;;;10.87;9.97;;;16.10;99.90;;;;;;4937110;29;20270;-80
2022/09/06 02:47:36;;;;;;;10.77;9.77;;;16.20;99.90;;;;;;4936138;29;20267;-80
2022/09/06 02:50:03;;;;;;;10.33;9.43;;;16.20;99.90;;;;;;4932459;29;20217;-77
2022/09/06 02:52:30;;;;;;;10.30;9.60;;;16.20;99.90;;;;;;4932333;29;20234;-77
2022/09/06 02:54:57;;;;;;;11.53;10.10;;;16.20;99.90;;;;;;4936204;29;20252;-77
2022/09/06 02:57:24;;;;;;;10.53;9.73;;;16.20;99.90;;;;;;4935142;29;20656;-77
2022/09/06 02:59:50;;;;;;;10.00;9.30;;;16.20;99.90;;;;;;4935779;29;20290;-76
2022/09/06 03:02:17;;;;;;;10.47;9.73;;;16.20;99.90;;;;;;4933799;29;20240;-76
2022/09/06 03:04:46;;;;;;;10.00;9.30;;;16.20;99.90;;;;;;4934630;29;20245;-77
2022/09/06 03:07:12;;;;;;;9.93;9.23;;;16.20;99.90;;;;;;4933827;29;20284;-74
2022/09/06 03:09:40;;;;;;;10.47;9.57;;;16.20;99.90;;;;;;4933755;29;20203;-74
2022/09/06 03:12:07;;;;;;;10.50;9.70;;;16.20;99.90;;;;;;4932152;29;20228;-74
2022/09/06 03:14:34;;;;;;;10.63;9.80;;;16.20;99.90;;;;;;4931552;29;20625;-74
2022/09/06 03:17:02;;;;;;;10.10;9.40;;;16.20;99.90;;;;;;4932766;29;20234;-74
2022/09/06 03:19:28;;;;;;;10.13;9.33;;;16.30;99.90;;;;;;4933750;29;20261;-74
2022/09/06 03:21:56;;;;;;;11.00;10.10;;;16.30;99.90;;;;;;4931997;29;20565;-74
2022/09/06 03:24:23;;;;;;;10.33;9.57;;;16.40;99.90;;;;;;4934534;29;20566;-74
2022/09/06 03:26:50;;;;;;;12.20;11.30;;;16.50;99.90;;;;;;4932316;29;20685;-74
2022/09/06 03:29:17;;;;;;;11.30;10.40;;;16.50;99.90;;;;;;4932511;29;20202;-74
2022/09/06 03:31:44;;;;;;;12.43;11.27;;;16.50;99.90;;;;;;4929603;29;20313;-76
2022/09/06 03:34:10;;;;;;;12.80;11.60;;;16.50;99.90;;;;;;4932207;29;20203;-76
2022/09/06 03:36:37;;;;;;;12.80;11.60;;;16.40;99.90;;;;;;4933479;29;20259;-76
2022/09/06 03:39:06;;;;;;;12.20;11.20;;;16.40;99.90;;;;;;4934445;29;20258;-74
2022/09/06 03:41:33;;;;;;;11.40;10.50;;;16.40;99.90;;;;;;4934535;29;20195;-77
2022/09/06 03:44:00;;;;;;;11.60;10.80;;;16.40;99.90;;;;;;4933832;29;20236;-77
2022/09/06 03:46:29;;;;;;;12.83;11.77;;;16.50;99.90;;;;;;4926509;29;20534;-74
2022/09/06 03:48:56;;;;;;;12.97;12.07;;;16.40;99.90;;;;;;4931756;29;20217;-74
2022/09/06 03:51:23;;;;;;;13.10;12.00;;;16.40;99.90;;;;;;4934397;29;20201;-73
2022/09/06 03:53:50;;;;;;;13.83;12.63;;;16.40;99.90;;;;;;4934181;29;20261;-74
2022/09/06 03:56:18;;;;;;;14.80;13.60;;;16.50;99.90;;;;;;4933482;29;20251;-74
2022/09/06 03:58:45;;;;;;;14.07;12.97;;;16.50;99.90;;;;;;4934768;29;20207;-75
2022/09/06 04:01:12;;;;;;;14.23;13.13;;;16.50;99.90;;;;;;4934597;29;20262;-73
2022/09/06 04:03:40;;;;;;;14.40;13.30;;;16.50;99.90;;;;;;4934540;29;20266;-74
2022/09/06 04:06:07;;;;;;;14.20;13.07;;;16.50;99.90;;;;;;4934543;29;20218;-77
2022/09/06 04:08:36;;;;;;;14.17;13.10;;;16.40;99.90;;;;;;4935068;29;20209;-78
2022/09/06 04:11:03;;;;;;;14.40;13.30;;;16.40;99.90;;;;;;4934790;29;20213;-76
2022/09/06 04:13:32;;;;;;;15.03;13.53;;;16.50;99.90;;;;;;4934438;29;20230;-76
2022/09/06 04:15:59;;;;;;;15.10;13.67;;;16.40;99.90;;;;;;4934747;29;20195;-76
2022/09/06 04:18:26;;;;;;;14.90;13.70;;;16.30;99.90;;;;;;4934829;29;20237;-75
2022/09/06 04:20:54;;;;;;;14.23;13.23;;;16.30;99.90;;;;;;4934255;29;20679;-76
2022/09/06 04:23:22;;;;;;;14.60;13.33;;;16.30;99.90;;;;;;4934343;29;20228;-77
2022/09/06 04:25:51;;;;;;;14.37;13.27;;;16.20;99.90;;;;;;4931421;29;20238;-76
2022/09/06 04:28:18;;;;;;;15.17;13.87;;;16.20;99.90;;;;;;4933601;29;20302;-77
2022/09/06 04:30:52;;;;;;;14.27;13.27;;;16.20;99.90;;;;;;4932495;29;20215;-77
2022/09/06 04:33:19;;;;;;;15.90;14.60;;;16.20;99.90;;;;;;4934103;29;20236;-76
2022/09/06 04:35:49;;;;;;;15.43;14.30;;;16.20;99.90;;;;;;4933152;29;20289;-77
2022/09/06 04:38:16;;;;;;;15.40;14.17;;;16.10;99.90;;;;;;4933549;29;20199;-77
2022/09/06 04:40:43;;;;;;;14.83;13.63;;;16.10;99.90;;;;;;4934358;29;20205;-77
2022/09/06 04:43:10;;;;;;;14.40;13.33;;;16.10;99.90;;;;;;4924599;29;20243;-76
2022/09/06 04:45:37;;;;;;;14.50;13.43;;;16.10;99.90;;;;;;4932054;29;20262;-76
2022/09/06 04:48:05;;;;;;;15.10;13.90;;;16.10;99.90;;;;;;4932332;29;20224;-76
2022/09/06 04:50:32;;;;;;;14.77;13.63;;;16.10;99.90;;;;;;4933740;29;20743;-76
2022/09/06 04:53:05;;;;;;;14.57;13.47;;;16.10;99.90;;;;;;4934276;29;20221;-75
2022/09/06 04:55:32;;;;;;;14.40;13.40;;;16.10;99.90;;;;;;4934219;29;20192;-76
2022/09/06 04:58:00;;;;;;;14.20;13.20;;;16.20;99.90;;;;;;4934461;29;20273;-76
2022/09/06 05:00:27;;;;;;;14.20;13.30;;;16.20;99.90;;;;;;4935938;29;20668;-78
2022/09/06 05:02:54;;;;;;;14.70;13.70;;;16.20;99.90;;;;;;4938090;29;20269;-76
2022/09/06 05:05:22;;;;;;;14.37;13.47;;;16.20;99.90;;;;;;4936609;29;20218;-76
2022/09/06 05:07:51;;;;;;;14.27;13.37;;;16.20;99.90;;;;;;4938181;29;20613;-76
2022/09/06 05:10:18;;;;;;;14.70;13.70;;;16.20;99.90;;;;;;4936811;29;20261;-76
2022/09/06 05:12:48;;;;;;;16.20;14.80;;;16.10;99.90;;;;;;4937876;29;20720;-77
2022/09/06 05:15:15;;;;;;;16.33;15.23;;;16.10;99.90;;;;;;4936615;29;20202;-76
2022/09/06 05:17:42;;;;;;;15.33;14.33;;;16.10;99.90;;;;;;4937896;29;20214;-77
2022/09/06 05:20:10;;;;;;;16.17;14.87;;;16.20;99.90;;;;;;4936139;29;20266;-77
2022/09/06 05:22:39;;;;;;;16.03;14.83;;;16.20;99.90;;;;;;4936953;29;20226;-76
2022/09/06 05:25:06;;;;;;;15.20;14.20;;;16.30;99.90;;;;;;4937859;29;20222;-75
2022/09/06 05:27:33;;;;;;;15.30;14.20;;;16.30;99.90;;;;;;4933983;29;20207;-76
2022/09/06 05:30:00;;;;;;;14.87;13.87;;;16.50;99.90;;;;;;4935727;29;20246;-75
2022/09/06 05:32:26;;;;;;;15.03;14.00;;;16.50;99.90;;;;;;4937594;29;20217;-77
2022/09/06 05:34:53;;;;;;;9.93;9.03;;;16.60;99.90;;;;;;4936149;29;20211;-76
2022/09/06 05:37:20;;;;;;;8.27;7.33;;;16.70;99.90;;;;;;4936378;29;20597;-75
2022/09/06 05:39:48;;;;;;;8.57;7.33;;;16.80;99.90;;;;;;4939619;29;20234;-77
2022/09/06 05:42:15;;;;;;;13.37;12.37;;;16.90;99.90;;;;;;4937392;29;20282;-77
2022/09/06 05:44:42;;;;;;;7.37;6.67;;;16.90;99.90;;;;;;4935742;29;20273;-77
2022/09/06 05:47:08;;;;;;;7.07;6.47;;;17.00;99.90;;;;;;4937283;29;20199;-76
2022/09/06 05:49:35;;;;;;;7.70;7.00;;;17.00;99.90;;;;;;4936179;29;20237;-76
2022/09/06 05:52:02;;;;;;;9.57;8.80;;;17.10;99.90;;;;;;4937557;29;20634;-76
2022/09/06 05:54:29;;;;;;;8.73;7.80;;;17.20;99.90;;;;;;4935889;29;20203;-76
2022/09/06 05:56:57;;;;;;;9.77;8.77;;;17.20;99.90;;;;;;4936407;29;20203;-77
2022/09/06 05:59:25;;;;;;;8.87;7.97;;;17.30;99.90;;;;;;4935076;29;20207;-76
2022/09/06 06:01:53;;;;;;;11.70;10.70;;;17.40;99.90;;;;;;4930593;29;20231;-75
2022/09/06 06:04:21;;;;;;;14.20;13.10;;;17.50;99.90;;;;;;4932502;29;20687;-76
2022/09/06 06:06:48;;;;;;;13.03;12.03;;;17.60;99.90;;;;;;4935756;29;20306;-77
2022/09/06 06:09:16;;;;;;;11.90;11.00;;;17.70;99.90;;;;;;4935714;29;20213;-76
2022/09/06 06:11:43;;;;;;;12.20;11.20;;;17.80;99.90;;;;;;4934692;29;20224;-77
2022/09/06 06:14:11;;;;;;;10.93;10.13;;;17.70;99.90;;;;;;4936190;29;20321;-77
2022/09/06 06:16:37;;;;;;;10.20;9.40;;;17.80;99.90;;;;;;4936775;29;20256;-77
2022/09/06 06:19:04;;;;;;;10.63;9.70;;;18.00;99.90;;;;;;4938674;29;20228;-77
2022/09/06 06:21:33;;;;;;;9.87;9.00;;;18.00;99.90;;;;;;4937852;29;20694;-77
2022/09/06 06:24:02;;;;;;;10.30;9.40;;;18.00;99.90;;;;;;4936272;29;20252;-77
2022/09/06 06:26:31;;;;;;;11.57;10.67;;;18.00;99.90;;;;;;4938109;29;20276;-77
2022/09/06 06:29:00;;;;;;;10.90;10.00;;;18.00;99.90;;;;;;4935836;29;20607;-77
2022/09/06 06:31:28;;;;;;;12.03;11.13;;;18.00;99.90;;;;;;4933932;29;20576;-77
2022/09/06 06:33:55;;;;;;;13.43;12.43;;;18.00;99.90;;;;;;4937502;29;20609;-76
2022/09/06 06:36:24;;;;;;;14.33;13.30;;;18.00;99.90;;;;;;4933651;29;20273;-77
2022/09/06 06:38:53;;;;;;;14.43;13.23;;;18.00;99.90;;;;;;4925916;29;20750;-77
2022/09/06 06:41:23;;;;;;;10.97;10.17;;;18.00;99.90;;;;;;4932640;29;20670;-77
2022/09/06 06:43:52;;;;;;;9.23;7.20;;;18.00;99.90;;;;;;4928517;29;20219;-78
2022/09/06 06:46:19;;;;;;;8.50;7.00;;;18.00;99.90;;;;;;4935603;29;20701;-78
2022/09/06 06:48:48;;;;;;;7.47;6.77;;;18.00;99.90;;;;;;4933888;29;20643;-77
2022/09/06 06:51:16;;;;;;;12.87;11.87;;;18.00;99.90;;;;;;4936829;29;20201;-77
2022/09/06 06:53:43;;;;;;;13.50;12.60;;;18.10;99.90;;;;;;4936171;29;20317;-77
2022/09/06 06:56:18;;;;;;;13.30;12.40;;;18.10;99.90;;;;;;4929292;29;20230;-78
2022/09/06 06:58:47;;;;;;;13.20;12.20;;;18.20;99.90;;;;;;4934626;29;20693;-77
2022/09/06 07:01:14;;;;;;;13.57;12.67;;;18.30;99.90;;;;;;4930080;29;20280;-78
2022/09/06 07:03:41;;;;;;;12.97;12.07;;;18.50;99.90;;;;;;4935534;29;20217;-78
2022/09/06 07:06:09;;;;;;;13.47;12.40;;;18.70;99.90;;;;;;4935298;29;20217;-77
2022/09/06 07:08:37;;;;;;;12.67;11.77;;;18.90;99.90;;;;;;4935551;29;20254;-78
2022/09/06 07:11:05;;;;;;;6.53;5.83;;;19.10;99.90;;;;;;4934970;29;20232;-78
2022/09/06 07:13:32;;;;;;;7.40;6.60;;;19.30;99.90;;;;;;4929503;29;20238;-79
2022/09/06 07:16:10;;;;;;;13.70;12.80;;;19.60;99.90;;;;;;4929027;29;20209;-79
2022/09/06 07:18:41;;;;;;;9.30;8.50;;;19.80;99.90;;;;;;4935241;29;20270;-78
2022/09/06 07:21:11;;;;;;;13.90;12.90;;;20.00;99.90;;;;;;4932872;29;20283;-79
2022/09/06 07:23:38;;;;;;;14.03;12.83;;;20.40;99.90;;;;;;4933894;29;20313;-78
2022/09/06 07:26:06;;;;;;;13.80;12.50;;;20.70;99.90;;;;;;4933356;29;20223;-78
2022/09/06 07:28:32;;;;;;;13.47;12.37;;;21.10;99.90;;;;;;4932722;29;20339;-78
2022/09/06 07:31:00;;;;;;;13.43;12.33;;;21.40;99.90;;;;;;4932393;29;20327;-79
2022/09/06 07:33:27;;;;;;;12.83;11.83;;;21.70;99.90;;;;;;4933653;29;20214;-79
2022/09/06 07:35:56;;;;;;;12.93;11.73;;;22.00;99.90;;;;;;4941669;28;20218;-78
2022/09/06 07:38:24;;;;;;;12.23;11.33;;;22.10;99.90;;;;;;4930404;29;20204;-79
2022/09/06 07:40:54;;;;;;;12.70;11.70;;;22.00;99.90;;;;;;4933504;29;20203;-79
2022/09/06 07:43:21;;;;;;;13.20;12.10;;;21.90;99.90;;;;;;4934251;29;20223;-77
2022/09/06 07:45:48;;;;;;;12.37;11.37;;;21.80;99.90;;;;;;4937252;29;20211;-77
2022/09/06 07:48:15;;;;;;;12.53;10.10;;;21.80;99.90;;;;;;4932953;29;20619;-77
2022/09/06 07:50:42;;;;;;;10.40;9.60;;;21.80;99.90;;;;;;4936412;29;20199;-77
2022/09/06 07:53:10;;;;;;;9.90;9.00;;;21.80;99.90;;;;;;4935805;29;20309;-78
2022/09/06 07:55:38;;;;;;;9.20;8.50;;;22.00;99.90;;;;;;4934091;29;20206;-79
2022/09/06 07:58:05;;;;;;;9.90;8.97;;;22.10;99.90;;;;;;4933869;29;20573;-79
2022/09/06 08:00:31;;;;;;;8.40;7.70;;;22.40;99.90;;;;;;4934200;29;20203;-79
2022/09/06 08:02:58;;;;;;;8.17;7.37;;;22.90;99.90;;;;;;4934911;29;20237;-78
2022/09/06 08:05:25;;;;;;;9.67;8.77;;;23.30;99.90;;;;;;4933617;29;20238;-79
2022/09/06 08:07:52;;;;;;;5.40;4.90;;;23.60;99.90;;;;;;4933501;29;20199;-79
2022/09/06 08:10:19;;;;;;;10.53;5.23;;;24.00;99.90;;;;;;4934269;29;20211;-78
2022/09/06 08:12:47;;;;;;;6.90;4.63;;;24.60;99.90;;;;;;4933537;29;20720;-79
2022/09/06 08:15:14;;;;;;;7.17;4.63;;;24.90;99.90;;;;;;4934397;29;20207;-78
2022/09/06 08:17:41;;;;;;;8.03;5.30;;;25.20;99.90;;;;;;4935266;29;20200;-78
2022/09/06 08:20:08;;;;;;;5.43;4.53;;;25.30;99.90;;;;;;4934147;29;20207;-78
2022/09/06 08:22:35;;;;;;;5.77;5.07;;;25.40;99.90;;;;;;4933991;29;20230;-79
2022/09/06 08:25:01;;;;;;;7.73;7.13;;;25.50;99.90;;;;;;4933082;29;20203;-78
2022/09/06 08:27:28;;;;;;;5.93;4.87;;;25.60;99.90;;;;;;4933686;29;20647;-80
2022/09/06 08:29:56;;;;;;;8.83;8.03;;;26.10;99.90;;;;;;4933449;29;20211;-80
2022/09/06 08:32:23;;;;;;;6.50;5.73;;;26.40;99.90;;;;;;4934711;29;20223;-80
2022/09/06 08:34:50;;;;;;;7.57;6.87;;;26.50;99.90;;;;;;4932590;29;20207;-80
2022/09/06 08:37:17;;;;;;;9.90;6.87;;;26.60;99.90;;;;;;4933521;29;20202;-81
2022/09/06 08:39:50;;;;;;;5.80;4.63;;;26.90;99.90;;;;;;4933127;29;20207;-78
2022/09/06 08:42:20;;;;;;;7.63;4.77;;;27.20;99.90;;;;;;4934723;29;20605;-82
2022/09/06 08:44:50;;;;;;;8.97;8.27;;;27.40;99.90;;;;;;4933693;29;20625;-78
2022/09/06 08:47:19;;;;;;;9.13;8.33;;;27.80;99.90;;;;;;4933450;29;20207;-81
2022/09/06 08:49:49;;;;;;;9.33;8.40;;;27.70;99.90;;;;;;4933728;29;20262;-79
2022/09/06 08:52:43;;;;;;;9.03;8.23;;;27.70;99.90;;;;;;4934839;29;20772;-80
2022/09/06 08:55:29;;;;;;;8.90;8.07;;;27.80;99.90;;;;;;4934526;29;20294;-80
2022/09/06 08:58:25;;;;;;;9.33;8.30;;;27.60;99.90;;;;;;4932888;29;20202;-80
2022/09/06 09:00:57;;;;;;;9.03;8.23;;;27.70;99.90;;;;;;4913694;29;20212;-80
2022/09/06 09:03:29;;;;;;;8.73;8.03;;;27.90;99.90;;;;;;4929357;29;20227;-79
2022/09/06 09:05:58;;;;;;;8.80;8.10;;;28.00;99.90;;;;;;4946486;29;20631;-79
2022/09/06 09:08:29;;;;;;;9.30;8.50;;;28.30;99.90;;;;;;4933508;29;20209;-79
2022/09/06 09:11:02;;;;;;;10.50;8.60;;;28.70;99.90;;;;;;4934099;29;20729;-79
2022/09/06 09:13:34;;;;;;;9.23;8.27;;;28.90;99.90;;;;;;4932220;29;20219;-79
2022/09/06 09:16:01;;;;;;;9.03;8.13;;;29.20;99.90;;;;;;4933101;29;20747;-78
2022/09/06 09:18:34;;;;;;;9.47;8.60;;;29.30;99.90;;;;;;4934213;29;20203;-78
2022/09/06 09:21:01;;;;;;;10.60;9.70;;;29.50;99.90;;;;;;4933912;29;20215;-80
2022/09/06 09:23:29;;;;;;;11.10;10.20;;;29.50;99.90;;;;;;4935165;29;20575;-79
2022/09/06 09:26:02;;;;;;;11.00;9.90;;;29.90;99.90;;;;;;4934712;29;20199;-80
2022/09/06 09:28:29;;;;;;;11.33;10.13;;;29.90;99.90;;;;;;4928180;29;20632;-80
2022/09/06 09:30:57;;;;;;;11.40;10.30;;;29.80;99.90;;;;;;4932510;29;20241;-81
2022/09/06 09:33:27;;;;;;;10.40;9.50;;;30.10;99.90;;;;;;4932764;29;20540;-78
2022/09/06 09:35:58;;;;;;;10.67;9.67;;;30.10;99.90;;;;;;4933967;29;20208;-81
2022/09/06 09:38:27;;;;;;;10.80;9.50;;;30.20;99.90;;;;;;4933177;29;20549;-81
2022/09/06 09:40:55;;;;;;;9.10;8.20;;;30.10;99.90;;;;;;4932246;29;20207;-81
2022/09/06 09:43:24;;;;;;;11.23;8.30;;;30.50;99.90;;;;;;4932279;29;20223;-80
2022/09/06 09:46:28;;;;;;;8.10;7.37;;;30.30;99.90;;;;;;4935527;29;20685;-81
2022/09/06 09:49:07;;;;;;;8.20;7.50;;;30.50;99.90;;;;;;4938009;29;20642;-80
2022/09/06 09:51:37;;;;;;;10.30;9.27;;;30.60;99.90;;;;;;4938279;29;20735;-80
2022/09/06 09:54:06;;;;;;;10.70;9.70;;;30.30;99.90;;;;;;4936096;29;20731;-80
2022/09/06 09:56:39;;;;;;;11.03;9.47;;;30.00;99.90;;;;;;4935349;29;20199;-80
2022/09/06 09:59:23;;;;;;;10.13;9.43;;;29.60;99.90;;;;;;4936987;29;20207;-80
2022/09/06 10:01:52;;;;;;;10.40;9.50;;;29.20;99.90;;;;;;4935516;29;20223;-80
2022/09/06 10:04:23;;;;;;;10.20;9.50;;;29.00;99.90;;;;;;4936466;29;20671;-79
2022/09/06 10:06:52;;;;;;;10.40;9.60;;;28.70;99.90;;;;;;4934332;29;20219;-80
2022/09/06 10:09:21;;;;;;;9.73;8.93;;;28.60;99.90;;;;;;4937993;29;20199;-80
2022/09/06 10:11:53;;;;;;;8.40;7.60;;;28.50;99.90;;;;;;4936068;29;20223;-80
2022/09/06 10:14:29;;;;;;;10.17;9.17;;;28.40;99.90;;;;;;4937477;29;20227;-79
2022/09/06 10:16:57;;;;;;;10.57;9.60;;;28.50;99.90;;;;;;4936147;29;20211;-81
2022/09/06 10:19:37;;;;;;;10.70;9.70;;;28.40;99.90;;;;;;4936427;29;20636;-79
2022/09/06 10:22:22;;;;;;;8.70;7.90;;;28.30;99.90;;;;;;4935902;29;20234;-80
2022/09/06 10:25:39;;;;;;;7.97;4.13;;;28.30;99.90;;;;;;4935561;29;20328;-79
2022/09/06 10:28:37;;;;;;;6.57;3.90;;;28.40;99.90;;;;;;4880986;29;20227;-80
2022/09/06 10:31:42;;;;;;;8.23;4.40;;;28.50;99.90;;;;;;4934961;29;20206;-79
2022/09/06 10:34:40;;;;;;;5.77;3.67;;;28.40;99.90;;;;;;4937719;29;20668;-78
2022/09/06 10:37:28;;;;;;;5.00;3.60;;;28.60;99.90;;;;;;4915456;29;20218;-78
2022/09/06 10:39:57;;;;;;;5.83;4.10;;;28.70;99.90;;;;;;4937693;29;20207;-80
2022/09/06 10:42:35;;;;;;;6.87;4.10;;;28.80;99.90;;;;;;4936395;29;20655;-80
2022/09/06 10:45:33;;;;;;;4.60;3.70;;;28.60;99.90;;;;;;4937043;29;20262;-80
2022/09/06 10:48:07;;;;;;;5.43;3.93;;;28.50;99.90;;;;;;4935672;29;20211;-79
2022/09/06 10:50:47;;;;;;;6.40;3.93;;;28.30;99.90;;;;;;4925119;29;20226;-80
2022/09/06 10:53:31;;;;;;;6.00;4.07;;;28.20;99.90;;;;;;4943030;29;20239;-81
2022/09/06 10:56:04;;;;;;;8.57;4.03;;;28.10;99.90;;;;;;4935358;29;20668;-79
2022/09/06 10:58:36;;;;;;;6.50;3.93;;;28.10;99.90;;;;;;4929528;29;20717;-79
2022/09/06 11:01:06;;;;;;;4.83;3.90;;;28.10;99.90;;;;;;4935576;29;20262;-80
2022/09/06 11:03:38;;;;;;;7.93;6.83;;;28.10;99.90;;;;;;4922948;29;20720;-79
2022/09/06 11:06:08;;;;;;;8.10;7.20;;;28.00;99.90;;;;;;4934819;29;20203;-79
2022/09/06 11:08:43;;;;;;;8.17;6.70;;;28.00;99.90;;;;;;4934791;29;20223;-78
2022/09/06 11:11:15;;;;;;;8.50;5.77;;;28.00;99.90;;;;;;4943329;28;20664;-79
2022/09/06 11:13:42;;;;;;;6.80;5.30;;;28.00;99.90;;;;;;4934574;29;20227;-80
2022/09/06 11:16:17;;;;;;;7.90;5.10;;;28.00;99.90;;;;;;4928276;29;20200;-80
2022/09/06 11:18:49;;;;;;;7.17;5.97;;;28.00;99.90;;;;;;4935789;29;20687;-79
2022/09/06 11:22:04;;;;;;;7.07;4.10;;;27.90;99.90;;;;;;4935864;29;20336;-78
2022/09/06 11:24:50;;;;;;;8.53;4.17;;;27.90;99.90;;;;;;4932843;29;20252;-79
2022/09/06 11:27:27;;;;;;;5.60;4.67;;;27.90;99.90;;;;;;4937098;29;20219;-79
2022/09/06 11:29:56;;;;;;;6.97;4.80;;;27.70;99.90;;;;;;4935864;29;20259;-77
2022/09/06 11:32:34;;;;;;;7.00;6.30;;;27.60;99.90;;;;;;4934137;29;20649;-78
2022/09/06 11:35:04;;;;;;;9.37;8.60;;;27.50;99.90;;;;;;4935313;29;20551;-79
2022/09/06 11:37:33;;;;;;;10.13;9.33;;;27.30;99.90;;;;;;4934200;29;20199;-78
2022/09/06 11:40:15;;;;;;;10.03;9.20;;;27.20;99.90;;;;;;4934735;29;20207;-79
2022/09/06 11:43:12;;;;;;;9.43;8.63;;;27.10;99.90;;;;;;4935544;29;20231;-78
2022/09/06 11:45:42;;;;;;;9.20;8.40;;;27.00;99.90;;;;;;4927798;29;20255;-78
2022/09/06 11:48:48;;;;;;;9.10;8.27;;;27.10;99.90;;;;;;4930640;29;20222;-78
2022/09/06 11:51:32;;;;;;;9.40;8.60;;;27.20;99.90;;;;;;4928895;29;20733;-77
2022/09/06 11:54:22;;;;;;;9.03;8.03;;;27.40;99.90;;;;;;4935187;29;20290;-78
2022/09/06 11:56:55;;;;;;;6.23;4.70;;;27.70;99.90;;;;;;4925714;29;20263;-78
2022/09/06 11:59:49;;;;;;;5.43;3.80;;;28.10;99.90;;;;;;4935002;29;20607;-78
2022/09/06 12:02:37;;;;;;;8.50;4.20;;;28.60;99.90;;;;;;4926664;29;20235;-78
2022/09/06 12:05:25;;;;;;;9.07;8.13;;;28.90;99.90;;;;;;4936312;29;20210;-78
2022/09/06 12:08:24;;;;;;;11.93;8.60;;;29.00;99.90;;;;;;4933853;29;20323;-78
2022/09/06 12:11:00;;;;;;;8.73;7.90;;;29.20;99.90;;;;;;4934189;29;20301;-79
2022/09/06 12:13:56;;;;;;;8.27;7.30;;;29.20;99.90;;;;;;4933805;29;20775;-79
2022/09/06 12:16:23;;;;;;;7.50;4.97;;;29.00;99.90;;;;;;4935110;28;20214;-79
2022/09/06 12:18:56;;;;;;;8.07;7.23;;;28.80;99.90;;;;;;4930752;29;20239;-79
2022/09/06 12:21:38;;;;;;;9.13;8.33;;;28.50;99.90;;;;;;4934284;29;20732;-79
2022/09/06 12:24:06;;;;;;;8.37;7.40;;;28.50;99.90;;;;;;4934948;29;20203;-82
2022/09/06 12:26:51;;;;;;;8.70;7.87;;;28.10;99.90;;;;;;4933778;29;20221;-81
2022/09/06 12:29:24;;;;;;;8.60;7.80;;;27.90;99.90;;;;;;4927735;29;20203;-81
2022/09/06 12:31:53;;;;;;;6.80;5.20;;;27.90;99.90;;;;;;4933507;29;20250;-78
2022/09/06 12:34:23;;;;;;;8.90;8.13;;;27.70;99.90;;;;;;4933102;29;20640;-79
2022/09/06 12:36:56;;;;;;;7.70;6.97;;;27.70;99.90;;;;;;4934603;29;20211;-82
2022/09/06 12:39:23;;;;;;;8.33;6.73;;;27.80;99.90;;;;;;4935629;29;20566;-80
2022/09/06 12:41:54;;;;;;;9.10;8.30;;;27.80;99.90;;;;;;4933942;29;20235;-81
2022/09/06 12:44:29;;;;;;;9.03;8.23;;;27.90;99.90;;;;;;4935414;29;20191;-82
2022/09/06 12:47:03;;;;;;;8.10;7.50;;;27.90;99.90;;;;;;4934057;29;20213;-81
2022/09/06 12:49:29;;;;;;;8.13;7.53;;;27.90;99.90;;;;;;4935446;29;20277;-80
2022/09/06 12:52:07;;;;;;;10.37;8.53;;;28.00;99.90;;;;;;4940972;28;20226;-78
2022/09/06 12:54:43;;;;;;;9.30;8.00;;;28.10;99.90;;;;;;4933210;29;20207;-83
2022/09/06 12:57:17;;;;;;;9.33;7.97;;;28.30;99.90;;;;;;4935104;29;20624;-81
2022/09/06 12:59:50;;;;;;;7.80;7.20;;;28.30;99.90;;;;;;4934896;29;20574;-79